Data for 07/22/2009

Time Sea-Level Adjusted Pressure Absolute Pressure Temperature Relative Humidity Dew Point   
(mb) (inHg) (mb) (inHg) (C) (F) (%) (C) (F)
00:05 1020 30.12 849 25.07 16.9 62.5 42 4.2 39.5
00:10 1020 30.12 849 25.07 16.7 62 41 3.6 38.4
00:15 1020 30.12 849 25.07 17.2 63 39 3.4 38.2
00:20 1020 30.12 849 25.07 17.3 63.1 40 3.8 38.8
00:25 1020 30.12 849 25.07 17 62.5 42 3.9 39
00:30 1020 30.12 849 25.07 16.8 62.2 41 3.6 38.6
00:35 1020 30.12 849 25.07 17.2 62.9 40 3.4 38.2
00:40 1020 30.12 849 25.07 17.6 63.7 38 3.4 38.1
00:45 1020 30.12 849 25.07 17.8 64.1 39 3.7 38.7
00:50 1020 30.12 849 25.07 17.5 63.6 40 4 39.2
00:55 1020 30.12 849 25.07 17.1 62.9 41 3.7 38.7
01:00 1020 30.12 849 25.07 17.2 63 40 3.6 38.4
01:05 1020 30.12 849 25.07 17.3 63.1 40 3.7 38.6
01:10 1020 30.12 849 25.07 17.2 62.9 41 4 39.2
01:15 1020 30.12 849 25.07 16.8 62.2 42 4 39.3
01:20 1020 30.12 849 25.07 16.8 62.3 39 3 37.5
01:25 1020 30.12 849 25.07 17.6 63.6 39 3.7 38.6
01:30 1020 30.12 849 25.07 17.4 63.4 39 3.6 38.5
01:35 1020 30.12 849 25.07 17.2 63 41 4.1 39.4
01:40 1020 30.12 849 25.07 17.2 63 39 3.3 38
01:45 1020 30.12 849 25.07 17.7 63.8 39 3.5 38.3
01:50 1020 30.12 849 25.07 17.9 64.2 38 3.6 38.5
01:55 1020 30.12 849 25.07 17.8 64 38 3.5 38.3
02:00 1020 30.12 849 25.07 17.4 63.3 45 5.5 41.9
02:05 1020 30.12 849 25.07 17.1 62.8 39 3.2 37.8
02:10 1020 30.12 849 25.07 17.2 63 40 3.7 38.6
02:15 1020 30.12 849 25.07 16.8 62.2 43 4.3 39.8
02:20 1020 30.12 849 25.07 16.1 61 45 4.2 39.5
02:25 1020 30.12 849 25.07 15.7 60.2 47 4.4 39.9
02:30 1020 30.12 849 25.07 15.5 59.9 46 4 39.3
02:35 1020 30.12 849 25.07 15.9 60.5 44 3.6 38.4
02:40 1020 30.12 849 25.07 16.2 61.2 41 3.2 37.8
02:45 1020 30.12 849 25.07 16.8 62.2 41 3.7 38.7
02:50 1020 30.12 849 25.07 16.4 61.5 45 4.4 39.9
02:55 1020 30.12 849 25.07 15.9 60.7 46 4.4 39.8
03:00 1020 30.12 849 25.07 16.4 61.6 42 3.5 38.4
03:05 1020 30.12 849 25.07 16.7 62 41 3.4 38.1
03:10 1020 30.12 849 25.07 16.7 62 44 4.6 40.3
03:15 1020 30.12 849 25.07 15.9 60.7 47 4.7 40.5
03:20 1020 30.12 849 25.07 15 58.9 50 4.7 40.4
03:25 1020 30.12 849 25.07 14.4 57.8 52 4.8 40.6
03:30 1020 30.12 849 25.07 14 57.2 52 4.5 40
03:35 1020 30.12 849 25.07 14.4 57.8 48 3.7 38.6
03:40 1020 30.12 849 25.07 15.3 59.5 44 3.2 37.7
03:45 1020 30.12 849 25.07 15.7 60.2 45 4 39.1
03:50 1020 30.12 850 25.1 15.1 59.2 47 3.9 39.1
03:55 1020 30.12 850 25.1 14.9 58.7 48 4 39.1
04:00 1020 30.12 850 25.1 14.6 58.2 48 3.8 38.8
04:05 1020 30.12 850 25.1 14.8 58.6 47 3.7 38.7
04:10 1020 30.12 850 25.1 15 58.9 47 3.8 38.8
04:15 1020 30.12 850 25.1 14.9 58.8 48 4 39.3
04:20 1020 30.12 850 25.1 14.8 58.7 47 3.7 38.7
04:25 1020 30.12 850 25.1 14.9 58.8 47 3.9 39
04:30 1020 30.12 850 25.1 14.7 58.5 48 3.8 38.8
04:35 1020 30.12 850 25.1 14.6 58.3 47 3.4 38.1
04:40 1020 30.12 850 25.1 14.9 58.7 47 3.9 39
04:45 1020 30.12 850 25.1 14.5 58 49 4.1 39.3
04:50 1021 30.15 850 25.1 14.2 57.6 50 4 39.3
04:55 1021 30.15 850 25.1 14.1 57.5 50 4 39.2
05:00 1021 30.15 850 25.1 14.2 57.5 50 3.9 39
05:05 1021 30.15 850 25.1 14.2 57.5 50 3.9 38.9
05:10 1021 30.15 850 25.1 14.4 57.8 48 3.6 38.4
05:15 1021 30.15 850 25.1 14.6 58.3 47 3.6 38.5
05:20 1021 30.15 850 25.1 14.7 58.5 47 3.7 38.7
05:25 1021 30.15 850 25.1 14.6 58.3 47 3.6 38.4
05:30 1021 30.15 850 25.1 14.7 58.4 48 3.7 38.7
05:35 1021 30.15 850 25.1 14.4 58 49 4 39.3
05:40 1021 30.15 850 25.1 14.1 57.3 50 4 39.2
05:45 1021 30.15 850 25.1 14 57.3 51 4 39.3
05:50 1021 30.15 850 25.1 14 57.2 51 4.1 39.4
05:55 1021 30.15 850 25.1 14 57.2 51 4.2 39.5
06:00 1021 30.15 850 25.1 14 57.2 51 4.2 39.5
06:05 1021 30.15 850 25.1 14.1 57.3 51 4.1 39.4
06:10 1021 30.15 850 25.1 14.1 57.4 51 4.1 39.5
06:15 1021 30.15 850 25.1 14.2 57.5 51 4.1 39.5
06:20 1021 30.15 850 25.1 14.4 57.8 49 3.8 38.9
06:25 1021 30.15 850 25.1 14.8 58.6 48 3.9 39
06:30 1021 30.15 850 25.1 14.9 58.7 48 4 39.1
06:35 1021 30.15 850 25.1 14.8 58.6 48 4.1 39.4
06:40 1021 30.15 850 25.1 14.7 58.5 48 4 39.3
06:45 1021 30.15 850 25.1 14.6 58.3 49 4 39.2
06:50 1021 30.15 850 25.1 14.6 58.3 49 4.1 39.4
06:55 1021 30.15 850 25.1 14.6 58.3 49 4.2 39.6
07:00 1021 30.15 850 25.1 14.7 58.5 49 4.2 39.6
07:05 1021 30.15 850 25.1 15 58.9 50 4.7 40.5
07:10 1021 30.15 850 25.1 14.9 58.9 50 4.8 40.6
07:15 1021 30.15 850 25.1 15.1 59.1 48 4.2 39.6
07:20 1021 30.15 850 25.1 15.4 59.7 45 3.6 38.4
07:25 1021 30.15 850 25.1 16 60.8 44 4 39.2
07:30 1021 30.15 851 25.13 16.3 61.4 50 6 42.8
07:35 1021 30.15 851 25.13 16.2 61.2 52 6.4 43.5
07:40 1021 30.15 851 25.13 15.9 60.6 53 6.4 43.5
07:45 1021 30.15 851 25.13 15.9 60.7 52 6.2 43.2
07:50 1021 30.15 850 25.1 16.2 61.1 49 5.5 41.9
07:55 1021 30.15 850 25.1 16.7 62 49 6 42.8
08:00 1021 30.15 850 25.1 16.9 62.5 46 5.2 41.4
08:05 1021 30.15 850 25.1 17.3 63.1 47 5.9 42.6
08:10 1021 30.15 850 25.1 18 64.4 45 5.9 42.6
08:15 1021 30.15 851 25.13 18.5 65.4 43 6 42.7
08:20 1021 30.15 851 25.13 19.2 66.5 41 5.6 42.2
08:25 1021 30.15 851 25.13 19.7 67.5 36 4.3 39.7
08:30 1021 30.15 851 25.13 20.4 68.6 37 5.5 41.9
08:35 1021 30.15 851 25.13 20.6 69.1 38 5.8 42.4
08:40 1021 30.15 851 25.13 20.9 69.5 37 5.7 42.3
08:45 1021 30.15 851 25.13 21.3 70.4 35 5.6 42
08:50 1021 30.15 851 25.13 21.8 71.3 34 5.6 42.1
08:55 1021 30.15 851 25.13 22.3 72.2 33 5.4 41.8
09:00 1021 30.15 851 25.13 22 71.6 35 6.1 43
09:05 1021 30.15 851 25.13 21 69.7 36 5.6 42
09:10 1021 30.15 851 25.13 21.2 70.2 35 5.2 41.4
09:15 1021 30.15 851 25.13 21.7 71.1 33 4.7 40.5
09:20 1021 30.15 851 25.13 21.6 70.9 30 3.6 38.4
09:25 1021 30.15 851 25.13 21.8 71.2 31 4 39.3
09:30 1021 30.15 851 25.13 22.2 72 32 4.7 40.5
09:35 1021 30.15 851 25.13 22.8 73 31 5 41
09:40 1021 30.15 850 25.1 23 73.4 32 5.4 41.7
09:45 1021 30.15 850 25.1 23.2 73.8 31 5.3 41.5
09:50 1021 30.15 850 25.1 23.5 74.3 32 6.2 43.2
09:55 1021 30.15 850 25.1 23.7 74.7 32 6.3 43.3
10:00 1021 30.15 851 25.13 23.5 74.3 35 7.6 45.6
10:05 1021 30.15 850 25.1 22.9 73.2 34 6.6 43.9
10:10 1021 30.15 850 25.1 23.3 73.9 35 7.3 45.1
10:15 1021 30.15 850 25.1 23.6 74.4 35 7.6 45.7
10:20 1021 30.15 850 25.1 23 73.5 36 7.4 45.2
10:25 1021 30.15 850 25.1 23.8 74.9 32 6.5 43.7
10:30 1021 30.15 850 25.1 24.7 76.5 30 6.1 43
10:35 1021 30.15 850 25.1 24.8 76.7 32 7 44.7
10:40 1021 30.15 850 25.1 24.6 76.3 33 7.3 45.2
10:45 1021 30.15 850 25.1 24.5 76.1 30 6.1 43.1
10:50 1021 30.15 850 25.1 24.7 76.4 32 6.9 44.4
10:55 1021 30.15 850 25.1 24.8 76.7 31 6.8 44.2
11:00 1021 30.15 850 25.1 25.5 78 30 6.8 44.3
11:05 1021 30.15 850 25.1 25.4 77.7 30 6.7 44.1
11:10 1021 30.15 850 25.1 26.2 79.1 29 7 44.6
11:15 1021 30.15 850 25.1 26.3 79.3 29 7.1 44.9
11:20 1021 30.15 850 25.1 26.6 79.9 27 6.2 43.1
11:25 1021 30.15 850 25.1 26.5 79.6 30 7.8 46
11:30 1021 30.15 850 25.1 26.1 79 31 7.8 46.1
11:35 1021 30.15 850 25.1 25.5 77.9 31 7.5 45.5
11:40 1021 30.15 850 25.1 26 78.7 28 6.2 43.2
11:45 1021 30.15 850 25.1 26.2 79.2 29 7.2 44.9
11:50 1021 30.15 850 25.1 26.2 79.2 26 5.2 41.4
11:55 1021 30.15 850 25.1 26.2 79.1 27 5.9 42.7
12:00 1021 30.15 850 25.1 26.4 79.5 25 5.2 41.4
12:05 1021 30.15 850 25.1 26.8 80.2 26 6.2 43.2
12:10 1021 30.15 850 25.1 26.9 80.4 25 5.7 42.3
12:15 1021 30.15 850 25.1 26.4 79.5 26 5.6 42.1
12:20 1021 30.15 850 25.1 26.9 80.5 25 5.7 42.3
12:25 1021 30.15 850 25.1 26.4 79.6 27 6.3 43.4
12:30 1021 30.15 850 25.1 26.8 80.3 26 6.1 43.1
12:35 1021 30.15 850 25.1 27.4 81.3 26 6.7 44.1
12:40 1021 30.15 850 25.1 27.6 81.6 25 5.8 42.5
12:45 1021 30.15 850 25.1 27.5 81.5 24 5.3 41.5
12:50 1021 30.15 850 25.1 27.3 81.2 23 4.4 39.9
12:55 1021 30.15 850 25.1 26.7 80 24 4.9 40.7
13:00 1021 30.15 850 25.1 26.6 79.9 22 3.5 38.3
13:05 1021 30.15 850 25.1 27.2 80.9 21 3.1 37.6
13:10 1021 30.15 850 25.1 26.7 80.1 22 3.5 38.3
13:15 1021 30.15 850 25.1 27.7 81.8 20 3.2 37.8
13:20 1021 30.15 850 25.1 28.6 83.5 20 3.6 38.5
13:25 1021 30.15 850 25.1 28.1 82.6 20 3.2 37.7
13:30 1020 30.12 850 25.1 27.7 81.9 19 2.6 36.7
13:35 1020 30.12 850 25.1 28.2 82.8 21 3.8 38.9
13:40 1020 30.12 850 25.1 28.3 83 20 3.2 37.8
13:45 1020 30.12 850 25.1 29.2 84.5 18 2.8 37.1
13:50 1020 30.12 850 25.1 29.5 85.2 19 3.6 38.5
13:55 1020 30.12 850 25.1 28.7 83.7 19 3.1 37.6
14:00 1020 30.12 849 25.07 28.7 83.6 19 3.4 38.1
14:05 1020 30.12 849 25.07 29.7 85.5 18 3.2 37.7
14:10 1020 30.12 849 25.07 30.1 86.2 16 1.8 35.3
14:15 1020 30.12 849 25.07 29 84.2 18 3 37.4
14:20 1020 30.12 849 25.07 29.8 85.7 16 1.5 34.8
14:25 1020 30.12 849 25.07 30.2 86.4 15 1.4 34.6
14:30 1020 30.12 849 25.07 30.5 86.9 15 1.4 34.5
14:35 1020 30.12 849 25.07 30.5 87 15 1.5 34.7
14:40 1020 30.12 849 25.07 30.3 86.5 14 0.1 32.3
14:45 1020 30.12 849 25.07 29.7 85.4 15 0.9 33.6
14:50 1020 30.12 849 25.07 29.6 85.4 12 -2.2 28
14:55 1020 30.12 849 25.07 29.9 85.8 14 -0.3 31.5
15:00 1020 30.12 849 25.07 30.3 86.6 14 0.2 32.3
15:05 1020 30.12 849 25.07 30.3 86.6 14 -0.1 31.8
15:10 1020 30.12 849 25.07 30.8 87.4 13 -0.3 31.5
15:15 1020 30.12 849 25.07 31.5 88.7 13 -0.2 31.7
15:20 1020 30.12 849 25.07 31 87.8 13 -0.1 31.9
15:25 1020 30.12 849 25.07 30.9 87.7 14 0.6 33.1
15:30 1020 30.12 849 25.07 30.7 87.2 13 -0.3 31.4
15:35 1019 30.09 849 25.07 31 87.7 13 -0.1 31.9
15:40 1019 30.09 849 25.07 31.1 87.9 14 0.7 33.3
15:45 1019 30.09 849 25.07 30.9 87.7 14 0.8 33.4
15:50 1019 30.09 849 25.07 30.2 86.3 14 -0.3 31.4
15:55 1019 30.09 848 25.04 30.2 86.3 13 -0.9 30.5
16:00 1019 30.09 848 25.04 30 86 13 -1.6 29.1
16:05 1019 30.09 848 25.04 30 85.9 13 -1.2 29.9
16:10 1019 30.09 848 25.04 29.9 85.8 13 -1.2 29.9
16:15 1019 30.09 848 25.04 29.6 85.2 13 -1.4 29.6
16:20 1019 30.09 848 25.04 30.2 86.4 13 -0.8 30.6
16:25 1019 30.09 848 25.04 30.3 86.6 13 -1 30.2
16:30 1019 30.09 848 25.04 30.1 86.2 14 -0.3 31.4
16:35 1019 30.09 848 25.04 30.3 86.6 14 0.3 32.5
16:40 1019 30.09 848 25.04 29.4 85 15 0.2 32.4
16:45 1019 30.09 848 25.04 30.1 86.2 13 -0.7 30.8
16:50 1019 30.09 848 25.04 29.8 85.6 14 0.2 32.4
16:55 1019 30.09 848 25.04 30.1 86.2 14 -0 31.9
17:00 1019 30.09 848 25.04 30.8 87.4 14 0.3 32.5
17:05 1019 30.09 848 25.04 31.1 88 14 0.9 33.7
17:10 1019 30.09 848 25.04 30.8 87.4 14 0.4 32.8
17:15 1019 30.09 848 25.04 30.4 86.7 14 -0.1 31.9
17:20 1019 30.09 848 25.04 29.8 85.6 14 0.2 32.3
17:25 1019 30.09 848 25.04 29.8 85.7 14 -0.2 31.7
17:30 1019 30.09 848 25.04 30 85.9 14 -0.3 31.4
17:35 1019 30.09 848 25.04 30 85.9 14 0.2 32.3
17:40 1019 30.09 848 25.04 30.1 86.2 14 0.3 32.5
17:45 1019 30.09 848 25.04 29.7 85.5 14 0.2 32.3
17:50 1019 30.09 848 25.04 29.7 85.4 14 -0.6 31
17:55 1019 30.09 848 25.04 30 86 14 0 32
18:00 1019 30.09 848 25.04 30.6 87 14 -0 32
18:05 1018 30.06 848 25.04 31 87.7 14 0.4 32.7
18:10 1018 30.06 848 25.04 31.2 88.2 14 0.7 33.2
18:15 1018 30.06 848 25.04 30.6 87.1 15 1.2 34.2
18:20 1018 30.06 848 25.04 30.6 87 14 0.2 32.4
18:25 1018 30.06 848 25.04 29.8 85.7 15 0.7 33.2
18:30 1018 30.06 848 25.04 29.9 85.8 15 0.4 32.7
18:35 1018 30.06 848 25.04 30 85.9 15 0.4 32.8
18:40 1018 30.06 848 25.04 30.3 86.6 15 0.7 33.3
18:45 1018 30.06 848 25.04 29.9 85.8 14 0.2 32.3
18:50 1018 30.06 847 25.01 29.6 85.3 14 0 32.1
18:55 1018 30.06 847 25.01 29.6 85.4 15 0.4 32.6
19:00 1018 30.06 847 25.01 29.6 85.4 14 -0.1 31.9
19:05 1018 30.06 847 25.01 29.8 85.6 14 0.1 32.2
19:10 1018 30.06 847 25.01 30.1 86.2 15 0.8 33.4
19:15 1018 30.06 847 25.01 30.2 86.3 14 0.4 32.7
19:20 1018 30.06 847 25.01 29.7 85.5 14 -0.2 31.6
19:25 1018 30.06 847 25.01 29.3 84.8 14 -0.4 31.3
19:30 1018 30.06 847 25.01 29.3 84.7 15 0.1 32.3
19:35 1018 30.06 847 25.01 29.3 84.8 15 0.5 32.9
19:40 1018 30.06 847 25.01 29.3 84.7 14 -0.2 31.7
19:45 1018 30.06 847 25.01 29.3 84.7 14 -0.4 31.3
19:50 1018 30.06 847 25.01 29.2 84.5 16 0.9 33.6
19:55 1018 30.06 847 25.01 28.9 84.1 18 2.4 36.3
20:00 1018 30.06 847 25.01 28.7 83.7 18 2.4 36.3
20:05 1018 30.06 847 25.01 28.6 83.6 18 2.1 35.7
20:10 1018 30.06 848 25.04 28.5 83.3 19 3.1 37.5
20:15 1018 30.06 848 25.04 28.3 83 19 2.6 36.6
20:20 1018 30.06 848 25.04 28.3 83 23 5.7 42.3
20:25 1018 30.06 848 25.04 28.2 82.7 24 6.2 43.2
20:30 1018 30.06 848 25.04 27.8 82.1 28 8.1 46.6
20:35 1018 30.06 848 25.04 26.9 80.4 32 9.1 48.4
20:40 1018 30.06 848 25.04 26.2 79.2 34 9.3 48.7
20:45 1018 30.06 848 25.04 25.5 77.9 38 10.3 50.6
20:50 1018 30.06 848 25.04 25 77 35 8.7 47.6
20:55 1018 30.06 848 25.04 24.6 76.4 35 8.5 47.3
21:00 1018 30.06 848 25.04 24.1 75.3 36 8.3 46.9
21:05 1018 30.06 848 25.04 23.4 74.1 40 9.1 48.3
21:10 1019 30.09 848 25.04 22.8 73 40 8.5 47.3
21:15 1019 30.09 848 25.04 22.5 72.4 37 7.1 44.8
21:20 1019 30.09 848 25.04 22.6 72.6 32 5.4 41.7
21:25 1019 30.09 848 25.04 22.8 73 32 5.2 41.4
21:30 1019 30.09 848 25.04 22.7 72.8 36 6.9 44.4
21:35 1019 30.09 848 25.04 22.5 72.5 33 5.8 42.5
21:40 1019 30.09 848 25.04 21.9 71.5 33 5.3 41.5
21:45 1019 30.09 848 25.04 21.6 70.8 33 4.9 40.8
21:50 1019 30.09 848 25.04 21.5 70.6 34 5 41
21:55 1019 30.09 848 25.04 21.1 70.1 35 5.3 41.5
22:00 1019 30.09 848 25.04 20.7 69.3 36 5.4 41.7
22:05 1019 30.09 848 25.04 20.6 69 36 5.3 41.6
22:10 1019 30.09 848 25.04 20.4 68.7 37 5.3 41.5
22:15 1019 30.09 848 25.04 20 68.1 37 5.2 41.4
22:20 1019 30.09 848 25.04 20 67.9 40 6.1 43
22:25 1019 30.09 848 25.04 20.1 68.2 34 4.1 39.4
22:30 1019 30.09 848 25.04 20.5 68.9 33 3.8 38.8
22:35 1019 30.09 848 25.04 20.7 69.2 33 3.8 38.9
22:40 1019 30.09 848 25.04 20.8 69.4 33 4.3 39.7
22:45 1019 30.09 848 25.04 20.5 68.8 35 4.8 40.6
22:50 1019 30.09 848 25.04 20.2 68.4 38 5.5 41.9
22:55 1019 30.09 848 25.04 20 68 38 5.6 42
23:00 1019 30.09 848 25.04 19.7 67.5 34 3.7 38.7
23:05 1019 30.09 848 25.04 20.3 68.5 33 3.6 38.5
23:10 1019 30.09 848 25.04 20.8 69.4 31 3.2 37.8
23:15 1019 30.09 848 25.04 20.8 69.4 31 3.2 37.8
23:20 1019 30.09 848 25.04 21.1 69.9 30 2.8 37.1
23:25 1019 30.09 848 25.04 21.2 70.2 32 4.2 39.5
23:30 1019 30.09 848 25.04 21.2 70.1 32 4 39.2
23:35 1019 30.09 848 25.04 20.7 69.2 33 3.9 39.1
23:40 1019 30.09 848 25.04 20.3 68.6 35 4.4 39.9
23:45 1019 30.09 848 25.04 20 68 37 5.2 41.3
23:50 1019 30.09 848 25.04 19.3 66.7 42 6.1 42.9
23:55 1019 30.09 848 25.04 18.3 65 43 5.7 42.2
24:00 1019 30.09 849 25.07 18 64.4 46 6.3 43.3